Time;durP1;ratioP1;P1;durP2;ratioP2;P2;SDS_P1;SDS_P2;PMS_P1;PMS_P2;Temp;Humidity;BMP_temperature;BMP_pressure;BME280_temperature;BME280_humidity;BME280_pressure;Samples;Min_cycle;Max_cycle;Signal;HPM_P1;HPM_P2
2022/10/17 00:00:58;;;;;;;;;;;;;;;15.02;49.57;95866.38;5001326;28;19985;-66
2022/10/17 00:03:23;;;;;;;;;;;;;;;14.96;49.68;95879.53;5000633;28;19969;-67
2022/10/17 00:05:48;;;;;;;;;;;;;;;15.00;49.55;95876.47;5001410;28;20051;-65
2022/10/17 00:08:14;;;;;;;;;;;;;;;14.97;49.43;95873.16;5000457;28;19974;-66
2022/10/17 00:10:39;;;;;;;;;;;;;;;15.00;49.45;95873.78;5000438;28;20001;-66
2022/10/17 00:13:05;;;;;;;;;;;;;;;15.04;49.28;95877.72;4996781;28;20542;-66
2022/10/17 00:15:30;;;;;;;;;;;;;;;14.97;49.49;95893.78;5000976;28;20428;-66
2022/10/17 00:17:55;;;;;;;;;;;;;;;14.90;49.64;95885.72;5009051;28;20001;-66
2022/10/17 00:20:20;;;;;;;;;;;;;;;14.93;49.51;95889.84;5003173;28;20172;-65
2022/10/17 00:22:46;;;;;;;;;;;;;;;14.88;49.64;95890.44;5007017;28;20064;-66
2022/10/17 00:25:11;;;;;;;;;;;;;;;14.83;49.62;95882.16;5003317;28;20394;-65
2022/10/17 00:27:37;;;;;;;;;;;;;;;14.90;49.53;95890.22;5005479;28;19965;-66
2022/10/17 00:30:02;;;;;;;;;;;;;;;14.85;49.46;95897.00;4986126;28;19986;-66
2022/10/17 00:32:27;;;;;;;;;;;;;;;14.81;49.63;95900.28;5008345;28;19966;-65
2022/10/17 00:34:53;;;;;;;;;;;;;;;14.72;49.66;95895.06;5008782;28;20497;-66
2022/10/17 00:37:18;;;;;;;;;;;;;;;14.81;49.62;95895.75;5010194;28;20045;-67
2022/10/17 00:39:43;;;;;;;;;;;;;;;14.72;49.73;95911.13;4997209;28;19973;-67
2022/10/17 00:42:11;;;;;;;;;;;;;;;14.68;49.93;95904.53;5015373;28;19996;-65
2022/10/17 00:44:36;;;;;;;;;;;;;;;14.66;49.95;95905.75;5007308;28;20348;-65
2022/10/17 00:47:03;;;;;;;;;;;;;;;14.72;49.91;95912.97;5015850;28;19968;-65
2022/10/17 00:49:29;;;;;;;;;;;;;;;14.77;49.90;95905.22;5008376;28;20111;-66
2022/10/17 00:51:55;;;;;;;;;;;;;;;14.82;49.70;95918.03;4997615;28;20343;-66
2022/10/17 00:54:22;;;;;;;;;;;;;;;14.79;49.77;95915.75;5013861;28;20305;-66
2022/10/17 00:56:47;;;;;;;;;;;;;;;14.74;49.73;95912.81;5020593;28;20423;-67
2022/10/17 00:59:13;;;;;;;;;;;;;;;14.70;50.01;95918.56;4987349;28;20083;-66
2022/10/17 01:01:41;;;;;;;;;;;;;;;14.64;50.34;95913.97;5007186;28;19990;-65
2022/10/17 01:04:07;;;;;;;;;;;;;;;14.78;50.08;95911.41;5003206;23;21718;-65
2022/10/17 01:06:32;;;;;;;;;;;;;;;14.74;50.19;95912.81;5002206;28;19988;-66
2022/10/17 01:08:57;;;;;;;;;;;;;;;14.74;49.98;95910.13;5003843;28;20005;-65
2022/10/17 01:11:29;;;;;;;;;;;;;;;14.73;49.96;95914.66;5002605;28;20418;-65
2022/10/17 01:13:57;;;;;;;;;;;;;;;14.67;50.13;95920.78;5003522;28;19985;-66
2022/10/17 01:16:25;;;;;;;;;;;;;;;14.65;50.09;95910.25;5003946;28;20477;-66
2022/10/17 01:18:53;;;;;;;;;;;;;;;14.68;49.94;95899.16;5002955;28;20509;-65
2022/10/17 01:21:18;;;;;;;;;;;;;;;14.62;50.10;95901.81;5003431;28;20270;-66
2022/10/17 01:23:52;;;;;;;;;;;;;;;14.51;49.91;95904.00;5003470;28;19977;-65
2022/10/17 01:26:36;;;;;;;;;;;;;;;14.53;49.55;95903.81;5066300;23;19998;-93
2022/10/17 01:29:07;;;;;;;;;;;;;;;14.38;48.96;95901.25;5026389;28;20000;-91
2022/10/17 01:32:08;;;;;;;;;;;;;;;14.40;48.85;95909.91;5019669;28;20035;-93
2022/10/17 01:34:53;;;;;;;;;;;;;;;14.49;49.69;95919.47;4975173;28;19994;-93
2022/10/17 01:37:25;;;;;;;;;;;;;;;14.52;49.63;95915.56;5015837;28;20441;-91
2022/10/17 01:40:02;;;;;;;;;;;;;;;14.49;47.64;95907.91;5019573;28;19977;-92
2022/10/17 01:42:31;;;;;;;;;;;;;;;14.41;49.78;95908.91;5019579;28;20005;-93
2022/10/17 01:45:02;;;;;;;;;;;;;;;14.54;48.95;95910.81;5019052;28;20434;-93
2022/10/17 01:47:28;;;;;;;;;;;;;;;14.59;48.78;95908.38;5019417;28;20027;-95
2022/10/17 01:49:55;;;;;;;;;;;;;;;14.55;49.00;95907.13;5002887;28;20450;-93
2022/10/17 01:52:34;;;;;;;;;;;;;;;14.57;49.41;95905.91;5002682;28;19965;-93
2022/10/17 01:55:03;;;;;;;;;;;;;;;14.28;47.68;95902.41;4996846;28;19996;-92
2022/10/17 01:57:36;;;;;;;;;;;;;;;14.51;48.90;95909.34;5018475;28;20092;-92
2022/10/17 02:00:02;;;;;;;;;;;;;;;14.52;48.87;95907.50;5003245;28;19992;-92
2022/10/17 02:02:28;;;;;;;;;;;;;;;14.52;48.61;95900.28;5002093;28;20061;-94
2022/10/17 02:04:53;;;;;;;;;;;;;;;14.55;48.76;95907.13;5019482;28;19990;-91
2022/10/17 02:07:19;;;;;;;;;;;;;;;14.57;48.57;95905.06;5003263;28;19973;-92
2022/10/17 02:09:44;;;;;;;;;;;;;;;14.58;48.57;95909.41;5003370;28;19997;-93
2022/10/17 02:12:28;;;;;;;;;;;;;;;14.54;48.83;95903.63;5003342;28;20468;-92
2022/10/17 02:14:56;;;;;;;;;;;;;;;14.52;48.22;95902.16;5012860;28;20341;-95
2022/10/17 02:17:21;;;;;;;;;;;;;;;14.67;48.91;95902.03;5034654;28;20035;-94
2022/10/17 02:19:59;;;;;;;;;;;;;;;14.68;49.05;95901.84;5039539;28;19972;-93
2022/10/17 02:22:46;;;;;;;;;;;;;;;14.70;48.73;95905.16;5023066;28;20067;-94
2022/10/17 02:25:13;;;;;;;;;;;;;;;14.68;49.16;95906.34;5022164;28;20000;-94
2022/10/17 02:27:43;;;;;;;;;;;;;;;14.65;48.95;95901.41;5023086;28;19965;-93
2022/10/17 02:30:27;;;;;;;;;;;;;;;14.64;48.32;95908.63;5022148;28;20010;-94
2022/10/17 02:32:54;;;;;;;;;;;;;;;14.65;48.71;95906.78;5038633;28;20136;-93
2022/10/17 02:35:20;;;;;;;;;;;;;;;14.63;48.63;95912.31;5022973;28;19965;-94
2022/10/17 02:37:45;;;;;;;;;;;;;;;14.56;48.45;95914.13;5022234;28;20003;-93
2022/10/17 02:40:11;;;;;;;;;;;;;;;14.57;48.64;95907.75;5023170;28;19976;-93
2022/10/17 02:42:36;;;;;;;;;;;;;;;14.51;48.60;95913.91;5021770;28;19999;-93
2022/10/17 02:45:01;;;;;;;;;;;;;;;14.46;48.35;95911.81;5022077;28;20080;-93
2022/10/17 02:47:56;;;;;;;;;;;;;;;14.49;48.78;95913.25;5022444;28;19987;-93
2022/10/17 02:50:21;;;;;;;;;;;;;;;14.45;48.87;95910.97;5030099;28;19989;-93
2022/10/17 02:53:13;;;;;;;;;;;;;;;14.38;48.18;95909.28;5021957;28;19995;-92
2022/10/17 02:55:40;;;;;;;;;;;;;;;14.37;48.77;95913.78;5036502;28;19963;-92
2022/10/17 02:58:13;;;;;;;;;;;;;;;14.36;48.32;95906.78;5021734;28;20454;-92
2022/10/17 03:00:38;;;;;;;;;;;;;;;14.31;49.31;95909.25;5021310;28;19991;-94
2022/10/17 03:03:16;;;;;;;;;;;;;;;14.33;48.93;95904.50;5021790;28;19967;-92
2022/10/17 03:05:42;;;;;;;;;;;;;;;14.37;48.98;95910.28;5021659;28;19989;-92
2022/10/17 03:08:07;;;;;;;;;;;;;;;14.33;49.28;95916.06;5021938;28;19976;-91
2022/10/17 03:10:32;;;;;;;;;;;;;;;14.39;48.80;95913.59;5021579;28;19989;-93
2022/10/17 03:12:57;;;;;;;;;;;;;;;14.29;48.76;95920.16;5021263;28;19989;-92
2022/10/17 03:15:23;;;;;;;;;;;;;;;14.27;48.68;95915.97;5021045;28;19968;-92
2022/10/17 03:17:48;;;;;;;;;;;;;;;14.34;48.67;95920.38;5020939;28;20057;-92
2022/10/17 03:20:13;;;;;;;;;;;;;;;14.33;49.01;95917.88;5021929;28;19965;-92
2022/10/17 03:22:39;;;;;;;;;;;;;;;14.33;48.83;95915.22;5022795;28;19993;-92
2022/10/17 03:25:04;;;;;;;;;;;;;;;14.34;49.16;95916.84;5022386;28;20421;-93
2022/10/17 03:27:29;;;;;;;;;;;;;;;14.40;49.13;95920.59;5023451;28;20079;-93
2022/10/17 03:29:54;;;;;;;;;;;;;;;14.39;48.89;95914.44;5021077;28;20411;-94
2022/10/17 03:32:20;;;;;;;;;;;;;;;14.36;49.05;95920.19;5021248;28;19966;-93
2022/10/17 03:34:45;;;;;;;;;;;;;;;14.40;48.85;95915.25;5021106;28;19996;-92
2022/10/17 03:37:10;;;;;;;;;;;;;;;14.39;48.47;95916.28;5020897;28;20068;-93
2022/10/17 03:39:36;;;;;;;;;;;;;;;14.36;49.00;95919.34;5021666;28;19968;-92
2022/10/17 03:42:01;;;;;;;;;;;;;;;14.35;48.86;95918.53;5021385;28;19993;-93
2022/10/17 03:44:26;;;;;;;;;;;;;;;14.36;48.56;95920.19;5020743;28;19969;-93
2022/10/17 03:46:51;;;;;;;;;;;;;;;14.41;48.35;95911.56;5021217;28;20027;-93
2022/10/17 03:49:17;;;;;;;;;;;;;;;14.35;48.04;95910.50;5020915;28;19989;-94
2022/10/17 03:51:42;;;;;;;;;;;;;;;14.32;49.16;95918.91;5022431;28;19966;-92
2022/10/17 03:54:07;;;;;;;;;;;;;;;14.38;49.07;95918.13;5021911;28;19996;-93
2022/10/17 03:56:32;;;;;;;;;;;;;;;14.26;48.99;95920.53;5040667;28;20052;-93
2022/10/17 03:58:58;;;;;;;;;;;;;;;14.31;48.54;95922.63;5041698;28;19984;-93
2022/10/17 04:01:23;;;;;;;;;;;;;;;14.31;49.13;95925.31;5025119;28;19996;-91
2022/10/17 04:03:49;;;;;;;;;;;;;;;14.38;49.26;95925.34;5025248;28;20448;-94
2022/10/17 04:06:14;;;;;;;;;;;;;;;14.25;49.03;95939.47;5024374;28;20464;-93
2022/10/17 04:08:41;;;;;;;;;;;;;;;14.39;49.50;95929.69;5023713;28;20016;-93
2022/10/17 04:11:07;;;;;;;;;;;;;;;14.36;48.56;95927.38;5025714;28;19976;-92
2022/10/17 04:13:32;;;;;;;;;;;;;;;14.22;48.69;95927.28;5025769;28;19992;-92
2022/10/17 04:16:01;;;;;;;;;;;;;;;14.38;49.25;95936.88;5058081;28;19985;-92
2022/10/17 04:18:27;;;;;;;;;;;;;;;14.39;49.56;95937.72;5042002;28;20001;-94
2022/10/17 04:20:52;;;;;;;;;;;;;;;14.43;49.43;95930.94;5059551;28;20036;-92
2022/10/17 04:23:17;;;;;;;;;;;;;;;14.41;49.20;95933.81;5040707;28;19981;-92
2022/10/17 04:25:43;;;;;;;;;;;;;;;14.38;49.62;95942.22;5024346;28;20035;-92
2022/10/17 04:28:08;;;;;;;;;;;;;;;14.36;49.32;95941.63;5024470;28;19969;-92
2022/10/17 04:30:33;;;;;;;;;;;;;;;14.45;49.05;95947.66;5023565;28;20070;-92
2022/10/17 04:33:00;;;;;;;;;;;;;;;14.39;49.33;95953.78;5023271;28;19996;-92
2022/10/17 04:35:25;;;;;;;;;;;;;;;14.46;49.59;95955.47;5023832;28;19992;-94
2022/10/17 04:37:51;;;;;;;;;;;;;;;14.57;49.23;95959.50;5022775;28;19997;-93
2022/10/17 04:40:16;;;;;;;;;;;;;;;14.39;49.57;95968.00;5022936;28;20430;-93
2022/10/17 04:42:41;;;;;;;;;;;;;;;14.44;49.43;95965.56;5024106;28;20030;-93
2022/10/17 04:45:07;;;;;;;;;;;;;;;14.28;48.85;95958.63;5023335;28;19993;-91
2022/10/17 04:47:32;;;;;;;;;;;;;;;14.26;50.05;95959.84;5024668;28;19964;-92
2022/10/17 04:49:57;;;;;;;;;;;;;;;14.38;49.66;95958.28;5023076;28;20023;-92
2022/10/17 04:52:24;;;;;;;;;;;;;;;14.42;49.53;95966.78;5023511;28;19970;-93
2022/10/17 04:54:49;;;;;;;;;;;;;;;14.35;49.75;95966.75;5023227;28;20325;-91
2022/10/17 04:57:14;;;;;;;;;;;;;;;14.29;49.72;95962.16;5022239;28;19996;-93
2022/10/17 04:59:39;;;;;;;;;;;;;;;14.28;49.31;95968.53;5022962;28;19963;-92
2022/10/17 05:02:05;;;;;;;;;;;;;;;14.24;49.45;95964.59;5022068;28;19989;-92
2022/10/17 05:04:30;;;;;;;;;;;;;;;14.23;49.47;95952.19;5021891;28;20035;-91
2022/10/17 05:06:55;;;;;;;;;;;;;;;14.23;49.56;95949.53;5022054;28;20012;-92
2022/10/17 05:09:20;;;;;;;;;;;;;;;14.13;49.60;95958.72;5021899;28;20071;-92
2022/10/17 05:11:46;;;;;;;;;;;;;;;14.07;49.68;95963.00;5022451;28;19992;-95
2022/10/17 05:14:11;;;;;;;;;;;;;;;14.05;49.64;95961.53;5022519;28;19989;-93
2022/10/17 05:16:36;;;;;;;;;;;;;;;14.03;49.29;95967.06;5022555;28;22846;-93
2022/10/17 05:19:02;;;;;;;;;;;;;;;13.95;49.34;95961.84;5024144;28;20000;-93
2022/10/17 05:21:27;;;;;;;;;;;;;;;13.95;49.79;95962.66;5023068;28;19996;-91
2022/10/17 05:23:53;;;;;;;;;;;;;;;13.89;50.01;95950.06;5022039;28;19994;-93
2022/10/17 05:26:18;;;;;;;;;;;;;;;13.89;49.91;95951.91;5021573;28;20079;-94
2022/10/17 05:28:43;;;;;;;;;;;;;;;13.87;49.79;95946.69;5021140;28;20054;-94
2022/10/17 05:31:09;;;;;;;;;;;;;;;13.90;49.91;95954.38;5022124;28;20443;-93
2022/10/17 05:33:34;;;;;;;;;;;;;;;13.86;49.85;95946.91;5021145;28;19989;-95
2022/10/17 05:35:59;;;;;;;;;;;;;;;13.80;50.12;95951.16;5021643;28;19965;-92
2022/10/17 05:38:25;;;;;;;;;;;;;;;13.69;50.70;95957.84;5022356;28;20395;-91
2022/10/17 05:40:50;;;;;;;;;;;;;;;13.72;50.24;95957.47;5022688;28;19989;-92
2022/10/17 05:43:15;;;;;;;;;;;;;;;13.81;50.32;95950.97;5022523;28;19972;-92
2022/10/17 05:45:41;;;;;;;;;;;;;;;13.59;50.95;95957.34;5039216;28;20371;-92
2022/10/17 05:48:07;;;;;;;;;;;;;;;13.82;50.31;95952.66;5022624;28;20071;-92
2022/10/17 05:50:33;;;;;;;;;;;;;;;13.94;50.16;95963.69;5022004;28;20357;-93
2022/10/17 05:52:59;;;;;;;;;;;;;;;13.92;49.93;95954.19;5022973;28;19989;-94
2022/10/17 05:55:24;;;;;;;;;;;;;;;13.90;50.15;95942.88;5038165;28;19980;-96
2022/10/17 05:57:53;;;;;;;;;;;;;;;13.90;50.16;95942.88;5038738;28;19997;-92
2022/10/17 06:00:20;;;;;;;;;;;;;;;13.91;49.81;95945.34;5053663;28;19969;-92
2022/10/17 06:02:51;;;;;;;;;;;;;;;13.85;50.22;95951.44;5036323;28;19972;-92
2022/10/17 06:05:17;;;;;;;;;;;;;;;13.78;50.43;95950.53;5045417;28;20541;-95
2022/10/17 06:07:49;;;;;;;;;;;;;;;13.86;50.29;95957.59;5036937;28;19969;-93
2022/10/17 06:10:16;;;;;;;;;;;;;;;13.89;50.16;95955.41;5054416;28;20046;-93
2022/10/17 06:12:42;;;;;;;;;;;;;;;14.02;49.97;95960.06;5054540;28;19988;-93
2022/10/17 06:15:07;;;;;;;;;;;;;;;13.93;50.19;95961.19;5033465;28;20008;-93
2022/10/17 06:17:32;;;;;;;;;;;;;;;13.91;50.46;95956.03;5023302;28;20092;-94
2022/10/17 06:19:58;;;;;;;;;;;;;;;14.07;50.13;95964.84;5030647;28;20036;-94
2022/10/17 06:22:23;;;;;;;;;;;;;;;14.21;49.89;95965.78;5036220;28;19996;-96
2022/10/17 06:24:49;;;;;;;;;;;;;;;14.19;50.09;95968.66;5015085;28;19989;-93
2022/10/17 06:27:14;;;;;;;;;;;;;;;14.20;49.97;95967.66;5041782;28;19991;-94
2022/10/17 06:29:39;;;;;;;;;;;;;;;14.32;49.68;95967.13;5049698;28;20019;-92
2022/10/17 06:32:05;;;;;;;;;;;;;;;14.37;49.92;95971.88;5021906;28;20004;-94
2022/10/17 06:34:30;;;;;;;;;;;;;;;14.03;50.50;95974.25;5021614;28;19996;-93
2022/10/17 06:36:56;;;;;;;;;;;;;;;14.28;50.15;95984.59;5020702;28;19996;-94
2022/10/17 06:39:22;;;;;;;;;;;;;;;14.24;50.54;95991.38;5020953;28;19990;-95
2022/10/17 06:41:47;;;;;;;;;;;;;;;14.36;50.05;96000.53;5020600;28;19997;-94
2022/10/17 06:44:12;;;;;;;;;;;;;;;14.39;50.19;96002.81;5021035;28;19964;-94
2022/10/17 06:46:38;;;;;;;;;;;;;;;14.55;50.03;96009.75;5037271;28;19989;-92
2022/10/17 06:49:03;;;;;;;;;;;;;;;14.72;49.92;96004.09;5020540;28;20033;-93
2022/10/17 06:51:29;;;;;;;;;;;;;;;14.82;49.83;96004.63;5021891;28;20294;-94
2022/10/17 06:53:54;;;;;;;;;;;;;;;14.65;50.03;96004.03;5020282;28;19989;-94
2022/10/17 06:56:19;;;;;;;;;;;;;;;14.94;49.52;96012.13;5020821;28;19965;-95
2022/10/17 06:58:46;;;;;;;;;;;;;;;14.96;49.71;96004.72;5020547;28;19996;-93
2022/10/17 07:01:11;;;;;;;;;;;;;;;15.10;49.27;96014.47;5020147;28;20039;-94
2022/10/17 07:03:37;;;;;;;;;;;;;;;15.18;49.53;96012.66;5020778;28;19969;-92
2022/10/17 07:06:02;;;;;;;;;;;;;;;15.42;49.19;96018.56;5037220;28;20452;-93
2022/10/17 07:08:28;;;;;;;;;;;;;;;15.42;48.45;96014.03;5022893;28;20008;-93
2022/10/17 07:10:53;;;;;;;;;;;;;;;15.28;47.58;96013.13;5029412;28;19962;-94
2022/10/17 07:13:19;;;;;;;;;;;;;;;14.90;45.05;96014.38;5030405;28;19995;-95
2022/10/17 07:15:44;;;;;;;;;;;;;;;15.06;45.67;96020.44;5029498;28;19964;-93
2022/10/17 07:18:09;;;;;;;;;;;;;;;15.54;47.83;96037.63;5046556;28;19995;-94
2022/10/17 07:20:35;;;;;;;;;;;;;;;15.66;46.58;96035.19;5019971;28;19965;-94
2022/10/17 07:23:00;;;;;;;;;;;;;;;15.70;43.87;96031.09;5020521;28;19965;-95
2022/10/17 07:25:25;;;;;;;;;;;;;;;15.85;45.56;96039.81;5020165;28;20001;-93
2022/10/17 07:27:51;;;;;;;;;;;;;;;15.58;45.59;96044.25;5020343;28;20017;-93
2022/10/17 07:30:16;;;;;;;;;;;;;;;15.92;43.71;96042.53;5023073;28;20438;-93
2022/10/17 07:32:42;;;;;;;;;;;;;;;15.99;47.34;96046.06;5023588;28;20034;-92
2022/10/17 07:35:07;;;;;;;;;;;;;;;16.29;45.24;96036.00;5024301;28;19968;-93
2022/10/17 07:37:32;;;;;;;;;;;;;;;15.37;48.93;96037.94;5023441;28;20066;-92
2022/10/17 07:39:58;;;;;;;;;;;;;;;15.84;47.43;96046.22;5024281;28;19968;-94
2022/10/17 07:42:23;;;;;;;;;;;;;;;16.13;44.44;96043.41;5023893;28;19988;-93
2022/10/17 07:44:48;;;;;;;;;;;;;;;13.92;53.44;96059.41;5023501;28;19989;-95
2022/10/17 07:47:14;;;;;;;;;;;;;;;15.56;49.34;96051.66;5023128;28;19972;-93
2022/10/17 07:49:41;;;;;;;;;;;;;;;16.01;47.61;96045.84;5018889;28;20070;-93
2022/10/17 07:52:08;;;;;;;;;;;;;;;16.26;47.22;96054.16;5021768;28;19953;-92
2022/10/17 07:54:33;;;;;;;;;;;;;;;16.17;47.31;96051.88;5021742;28;20445;-94
2022/10/17 07:56:59;;;;;;;;;;;;;;;16.20;46.72;96063.06;5020904;28;20043;-94
2022/10/17 07:59:24;;;;;;;;;;;;;;;16.33;44.51;96062.25;5036548;28;20027;-93
2022/10/17 08:01:49;;;;;;;;;;;;;;;16.26;43.51;96067.59;5020186;28;19987;-94
2022/10/17 08:04:15;;;;;;;;;;;;;;;16.66;43.46;96060.69;5021440;28;19969;-93
2022/10/17 08:06:41;;;;;;;;;;;;;;;17.10;41.98;96069.13;5036711;28;20035;-93
2022/10/17 08:09:06;;;;;;;;;;;;;;;17.02;42.64;96059.41;5036914;28;20091;-93
2022/10/17 08:11:31;;;;;;;;;;;;;;;16.74;43.46;96057.78;5020837;28;19973;-94
2022/10/17 08:13:57;;;;;;;;;;;;;;;16.57;45.81;96051.16;5020378;28;19994;-94
2022/10/17 08:16:22;;;;;;;;;;;;;;;16.42;46.82;96060.22;5040582;28;20069;-95
2022/10/17 08:18:47;;;;;;;;;;;;;;;16.86;45.44;96060.66;5024829;28;19988;-91
2022/10/17 08:21:13;;;;;;;;;;;;;;;17.28;44.35;96067.69;5039857;28;19989;-90
2022/10/17 08:23:38;;;;;;;;;;;;;;;17.01;44.67;96060.47;5024386;28;20015;-91
2022/10/17 08:26:04;;;;;;;;;;;;;;;16.48;44.34;96055.88;5020518;28;20083;-90
2022/10/17 08:28:29;;;;;;;;;;;;;;;17.19;44.99;96059.00;5021614;28;19962;-92
2022/10/17 08:31:02;;;;;;;;;;;;;;;16.68;44.92;96055.91;5006898;28;20025;-90
2022/10/17 08:33:27;;;;;;;;;;;;;;;17.39;43.97;96058.13;5000795;28;20002;-93
2022/10/17 08:35:52;;;;;;;;;;;;;;;17.29;44.02;96053.19;5002227;28;19964;-93
2022/10/17 08:38:18;;;;;;;;;;;;;;;17.63;41.78;96062.00;4999507;28;19994;-94
2022/10/17 08:40:43;;;;;;;;;;;;;;;17.85;43.37;96069.78;4999896;28;20001;-93
2022/10/17 08:43:16;;;;;;;;;;;;;;;17.88;40.94;96063.19;5001319;28;20007;-95
2022/10/17 08:45:53;;;;;;;;;;;;;;;17.76;43.85;96063.81;5001171;28;19987;-93
2022/10/17 08:48:20;;;;;;;;;;;;;;;17.61;43.79;96060.56;5000968;28;19962;-95
2022/10/17 08:50:47;;;;;;;;;;;;;;;17.22;44.69;96077.41;5001940;28;19987;-94
2022/10/17 08:53:31;;;;;;;;;;;;;;;17.88;43.49;96069.38;5001612;28;19990;-94
2022/10/17 08:55:56;;;;;;;;;;;;;;;18.28;42.43;96057.56;5000867;28;19996;-93
2022/10/17 08:58:22;;;;;;;;;;;;;;;18.27;41.29;96047.84;5000249;28;20065;-93
2022/10/17 09:01:06;;;;;;;;;;;;;;;18.51;41.57;96058.88;5000771;28;20341;-91
2022/10/17 09:06:38;;;;;;;;;;;;;;;18.00;42.75;96071.41;5017515;28;20028;-91
2022/10/17 09:09:06;;;;;;;;;;;;;;;18.13;42.29;96073.19;5003947;28;20026;-93
2022/10/17 09:11:37;;;;;;;;;;;;;;;18.11;42.96;96075.28;5000517;28;19961;-93
2022/10/17 09:14:08;;;;;;;;;;;;;;;18.28;42.03;96073.75;5015336;28;20098;-92
2022/10/17 09:16:36;;;;;;;;;;;;;;;18.39;40.59;96076.78;5022701;28;20420;-93
2022/10/17 09:19:21;;;;;;;;;;;;;;;17.02;43.90;96086.31;5039002;28;19985;-94
2022/10/17 09:22:04;;;;;;;;;;;;;;;17.64;42.12;96084.38;5023748;28;19984;-94
2022/10/17 09:24:38;;;;;;;;;;;;;;;17.73;43.37;96085.78;5022739;28;20332;-94
2022/10/17 09:27:04;;;;;;;;;;;;;;;18.43;41.55;96089.59;5040198;28;19965;-94
2022/10/17 09:29:30;;;;;;;;;;;;;;;18.19;41.76;96091.22;5022918;28;20065;-95
2022/10/17 09:32:02;;;;;;;;;;;;;;;17.95;43.63;96093.56;5023151;28;19968;-94
2022/10/17 09:34:28;;;;;;;;;;;;;;;18.25;42.03;96093.03;5039091;28;19990;-93
2022/10/17 09:36:53;;;;;;;;;;;;;;;19.21;41.68;96094.03;5023237;28;20348;-95
2022/10/17 09:39:19;;;;;;;;;;;;;;;19.03;39.36;96089.41;5006512;28;19977;-94
2022/10/17 09:41:52;;;;;;;;;;;;;;;19.08;39.98;96097.66;4999172;28;19987;-95
2022/10/17 09:44:17;;;;;;;;;;;;;;;18.12;42.79;96112.78;4999409;28;19983;-95
2022/10/17 09:47:01;;;;;;;;;;;;;;;18.08;43.02;96114.25;4999257;28;19982;-93
2022/10/17 09:49:33;;;;;;;;;;;;;;;18.46;42.45;96101.81;4999980;28;20334;-95
2022/10/17 09:51:59;;;;;;;;;;;;;;;18.73;41.67;96104.38;4999276;28;19971;-95
2022/10/17 09:54:37;;;;;;;;;;;;;;;18.88;40.92;96101.38;4999584;28;19986;-95
2022/10/17 09:57:07;;;;;;;;;;;;;;;19.19;41.17;96115.84;5007255;28;20379;-95
2022/10/17 09:59:46;;;;;;;;;;;;;;;18.97;41.61;96109.19;5022993;28;19972;-94
2022/10/17 10:02:11;;;;;;;;;;;;;;;19.35;41.29;96110.13;5024477;28;19983;-95
2022/10/17 10:04:53;;;;;;;;;;;;;;;18.82;42.22;96119.25;5042116;28;19962;-96
2022/10/17 10:07:35;;;;;;;;;;;;;;;18.83;41.09;96114.66;5045662;28;20026;-95
2022/10/17 10:10:01;;;;;;;;;;;;;;;19.33;40.15;96116.56;5061771;28;20005;-94
2022/10/17 10:12:33;;;;;;;;;;;;;;;19.35;41.12;96115.50;5045437;28;19980;-93
2022/10/17 10:14:58;;;;;;;;;;;;;;;18.77;41.93;96121.75;5042466;28;19973;-94
2022/10/17 10:20:28;;;;;;;;;;;;;;;19.08;41.06;96103.88;5059853;28;19984;-95
2022/10/17 10:23:08;;;;;;;;;;;;;;;19.37;40.57;96119.63;5023283;28;20396;-94
2022/10/17 10:25:34;;;;;;;;;;;;;;;20.17;38.82;96113.59;5023106;28;19992;-95
2022/10/17 10:27:59;;;;;;;;;;;;;;;19.68;38.79;96115.16;5023714;28;20344;-94
2022/10/17 10:30:26;;;;;;;;;;;;;;;19.29;40.81;96123.47;5024494;28;20338;-95
2022/10/17 10:32:51;;;;;;;;;;;;;;;20.23;37.35;96121.59;5021055;28;20041;-95
2022/10/17 10:35:29;;;;;;;;;;;;;;;19.21;41.10;96134.50;5005359;28;20416;-95
2022/10/17 10:37:55;;;;;;;;;;;;;;;20.11;38.89;96136.94;5019858;28;20065;-95
2022/10/17 10:40:27;;;;;;;;;;;;;;;19.79;39.82;96143.28;5003431;28;19951;-93
2022/10/17 10:42:54;;;;;;;;;;;;;;;20.28;38.86;96150.66;5004200;28;19956;-93
2022/10/17 10:45:20;;;;;;;;;;;;;;;19.75;39.81;96146.69;5005631;28;19974;-94
2022/10/17 10:47:49;;;;;;;;;;;;;;;18.69;41.99;96157.06;5003952;28;20046;-94
2022/10/17 10:50:23;;;;;;;;;;;;;;;20.27;37.78;96154.44;5003355;28;19980;-92
2022/10/17 10:52:55;;;;;;;;;;;;;;;20.67;37.80;96150.38;5019090;28;19978;-94
2022/10/17 10:55:23;;;;;;;;;;;;;;;20.77;37.41;96149.81;5003164;28;19960;-96
2022/10/17 10:57:49;;;;;;;;;;;;;;;19.42;39.30;96148.69;5018009;28;19988;-95
2022/10/17 11:00:15;;;;;;;;;;;;;;;19.36;40.94;96153.09;5002152;28;19968;-93
2022/10/17 11:02:43;;;;;;;;;;;;;;;19.19;39.95;96158.19;5001194;28;20090;-93
2022/10/17 11:05:27;;;;;;;;;;;;;;;20.64;38.50;96153.56;4997888;28;19979;-94
2022/10/17 11:08:02;;;;;;;;;;;;;;;19.58;39.77;96148.09;4998657;28;20410;-96
2022/10/17 11:10:36;;;;;;;;;;;;;;;18.89;41.00;96156.13;4998725;28;19974;-94
2022/10/17 11:13:04;;;;;;;;;;;;;;;19.03;41.40;96151.44;4999374;28;19999;-95
2022/10/17 11:15:34;;;;;;;;;;;;;;;20.52;38.07;96150.75;5000777;28;19951;-93
2022/10/17 11:18:02;;;;;;;;;;;;;;;21.05;37.71;96142.97;5000494;28;19981;-94
2022/10/17 11:20:35;;;;;;;;;;;;;;;20.93;36.41;96144.78;4999596;28;19988;-96
2022/10/17 11:23:18;;;;;;;;;;;;;;;20.65;37.65;96154.38;5003138;28;19949;-95
2022/10/17 11:25:44;;;;;;;;;;;;;;;20.84;37.43;96147.84;5013019;28;20068;-95
2022/10/17 11:28:13;;;;;;;;;;;;;;;21.66;36.36;96157.38;5024278;28;19984;-94
2022/10/17 11:30:46;;;;;;;;;;;;;;;20.95;37.27;96175.16;5021492;28;19982;-95
2022/10/17 11:33:14;;;;;;;;;;;;;;;21.40;37.52;96162.19;5021531;28;20010;-95
2022/10/17 11:35:39;;;;;;;;;;;;;;;22.24;35.45;96161.09;5019088;28;19947;-95
2022/10/17 11:38:20;;;;;;;;;;;;;;;22.72;34.58;96168.22;5027260;28;20027;-95
2022/10/17 11:40:49;;;;;;;;;;;;;;;21.10;37.55;96158.47;5036023;28;20006;-95
2022/10/17 11:43:15;;;;;;;;;;;;;;;21.04;37.64;96171.06;5019694;28;19951;-94
2022/10/17 11:45:41;;;;;;;;;;;;;;;21.75;36.68;96169.47;5034128;28;20333;-95
2022/10/17 11:48:12;;;;;;;;;;;;;;;22.72;33.58;96170.94;5023875;28;19989;-96
2022/10/17 11:50:41;;;;;;;;;;;;;;;23.04;34.20;96171.25;5021612;28;19962;-93
2022/10/17 11:53:25;;;;;;;;;;;;;;;23.40;33.57;96175.63;5021344;28;19966;-96
2022/10/17 11:55:51;;;;;;;;;;;;;;;23.56;33.29;96176.72;5037258;28;20035;-94
2022/10/17 11:58:26;;;;;;;;;;;;;;;23.14;33.69;96177.94;5021108;28;19980;-94
2022/10/17 12:01:13;;;;;;;;;;;;;;;22.45;34.10;96177.75;5023117;28;19974;-93
2022/10/17 12:03:39;;;;;;;;;;;;;;;22.75;33.74;96190.28;5047445;28;19947;-96
2022/10/17 12:06:23;;;;;;;;;;;;;;;23.21;33.53;96184.03;5042513;28;19988;-94
2022/10/17 12:09:18;;;;;;;;;;;;;;;23.08;33.09;96196.00;5010786;28;19968;-94
2022/10/17 12:11:56;;;;;;;;;;;;;;;23.10;33.89;96187.59;4942221;29;19949;-93
2022/10/17 12:14:35;;;;;;;;;;;;;;;23.44;33.56;96190.38;5011314;28;19969;-94
2022/10/17 12:17:39;;;;;;;;;;;;;;;20.73;37.41;96189.19;5024089;28;19971;-95
2022/10/17 12:20:22;;;;;;;;;;;;;;;24.73;31.73;96186.91;4998995;28;19941;-95
2022/10/17 12:22:48;;;;;;;;;;;;;;;25.44;29.56;96177.78;5022410;28;19963;-95
2022/10/17 12:25:18;;;;;;;;;;;;;;;25.91;28.03;96186.28;5032434;28;19969;-94
2022/10/17 12:27:44;;;;;;;;;;;;;;;24.45;31.06;96195.88;5031764;28;19932;-91
2022/10/17 12:33:25;;;;;;;;;;;;;;;23.58;32.30;96184.63;5055376;23;19978;-93
2022/10/17 12:36:11;;;;;;;;;;;;;;;25.04;29.91;96198.97;4998196;28;19996;-94
2022/10/17 12:38:36;;;;;;;;;;;;;;;24.31;31.44;96197.31;5004255;28;19972;-93
2022/10/17 12:41:02;;;;;;;;;;;;;;;23.54;31.96;96198.69;4988016;28;19978;-94
2022/10/17 12:43:27;;;;;;;;;;;;;;;24.65;30.59;96208.09;4989599;28;19958;-94
2022/10/17 12:45:53;;;;;;;;;;;;;;;23.16;32.73;96198.38;5003688;28;19973;-93
2022/10/17 12:48:33;;;;;;;;;;;;;;;22.66;33.06;96200.69;4986447;28;20410;-94
2022/10/17 12:51:11;;;;;;;;;;;;;;;22.85;32.79;96189.66;5008286;28;19949;-94
2022/10/17 12:53:48;;;;;;;;;;;;;;;23.45;32.97;96177.63;5007249;28;19968;-96
2022/10/17 12:56:17;;;;;;;;;;;;;;;26.68;27.79;96184.19;4989222;28;19967;-96
2022/10/17 12:58:46;;;;;;;;;;;;;;;26.59;27.83;96183.91;4990555;28;19963;-95
2022/10/17 13:01:14;;;;;;;;;;;;;;;26.32;28.72;96195.78;4988735;28;20008;-94
2022/10/17 13:03:45;;;;;;;;;;;;;;;25.75;28.93;96185.38;4991028;28;19932;-95